VLK208 UHMM-UHSS
Flight info
| Callsign | VLK208 |
|---|---|
| Flight time | N/A |
| Altitude | 34000 |
| Route | BANOT5Y BANOT B223 OKUKU/K0867F360 B223 LIKON R446 IDRUT IDRUT2 |
| Aircraft | T154/M-SDGRWY/S |
Departure
| Time | N/A |
|---|---|
| Airport | Sokol Airport (UHMM) |
Arrival
| Time | 2026-05-08 22:53 |
|---|---|
| Airport | Yuzhno-Sakhalinsk International Airport (UHSS) |
| Time | Latitude | Longitude | Altitude | Speed | Heading |
|---|---|---|---|---|---|
| 2026-05-08 22:07 | 50.42198 | 142.32259 | 35752 ft | 437 kts | 189° |
| 2026-05-08 22:08 | 50.39223 | 142.31673 | 35754 ft | 437 kts | 189° |
| 2026-05-08 22:08 | 50.33166 | 142.30482 | 35738 ft | 434 kts | 189° |
| 2026-05-08 22:09 | 50.27166 | 142.29305 | 35757 ft | 436 kts | 189° |
| 2026-05-08 22:09 | 50.21193 | 142.28137 | 35762 ft | 434 kts | 189° |
| 2026-05-08 22:10 | 50.15205 | 142.26968 | 35747 ft | 433 kts | 189° |
| 2026-05-08 22:10 | 50.09232 | 142.25806 | 35758 ft | 432 kts | 189° |
| 2026-05-08 22:11 | 50.03214 | 142.24637 | 35761 ft | 434 kts | 189° |
| 2026-05-08 22:11 | 49.97240 | 142.23480 | 35778 ft | 434 kts | 190° |
| 2026-05-08 22:12 | 49.91278 | 142.22330 | 35751 ft | 430 kts | 189° |
| 2026-05-08 22:12 | 49.85303 | 142.21182 | 35721 ft | 434 kts | 189° |
| 2026-05-08 22:13 | 49.79357 | 142.20046 | 35733 ft | 433 kts | 189° |
| 2026-05-08 22:13 | 49.73383 | 142.18900 | 35746 ft | 432 kts | 189° |
| 2026-05-08 22:14 | 49.67423 | 142.17760 | 35749 ft | 432 kts | 189° |
| 2026-05-08 22:14 | 49.61427 | 142.16615 | 35779 ft | 434 kts | 189° |
| 2026-05-08 22:15 | 49.55497 | 142.15489 | 35785 ft | 432 kts | 189° |
| 2026-05-08 22:15 | 49.49546 | 142.14359 | 35778 ft | 430 kts | 189° |
| 2026-05-08 22:16 | 49.43580 | 142.13229 | 35770 ft | 429 kts | 189° |
| 2026-05-08 22:16 | 49.37617 | 142.12102 | 35783 ft | 431 kts | 189° |
| 2026-05-08 22:17 | 49.31687 | 142.10986 | 35782 ft | 428 kts | 189° |
| 2026-05-08 22:17 | 49.25819 | 142.09882 | 35757 ft | 429 kts | 189° |
| 2026-05-08 22:18 | 49.19849 | 142.08762 | 35768 ft | 430 kts | 189° |
| 2026-05-08 22:18 | 49.13887 | 142.08141 | 35766 ft | 432 kts | 181° |
| 2026-05-08 22:19 | 49.07904 | 142.08211 | 35774 ft | 431 kts | 184° |
| 2026-05-08 22:19 | 49.01930 | 142.07964 | 35774 ft | 430 kts | 184° |
| 2026-05-08 22:20 | 48.95978 | 142.07816 | 35761 ft | 427 kts | 184° |
| 2026-05-08 22:20 | 48.89999 | 142.07625 | 35721 ft | 429 kts | 184° |
| 2026-05-08 22:21 | 48.83966 | 142.07451 | 35701 ft | 432 kts | 184° |
| 2026-05-08 22:21 | 48.77954 | 142.07272 | 35685 ft | 432 kts | 184° |
| 2026-05-08 22:22 | 48.71962 | 142.07092 | 35727 ft | 434 kts | 184° |
| 2026-05-08 22:22 | 48.65954 | 142.06914 | 35732 ft | 433 kts | 183° |
| 2026-05-08 22:23 | 48.59920 | 142.06735 | 35742 ft | 433 kts | 184° |
| 2026-05-08 22:23 | 48.53870 | 142.06554 | 35762 ft | 434 kts | 184° |
| 2026-05-08 22:24 | 48.47844 | 142.06377 | 35770 ft | 433 kts | 183° |
| 2026-05-08 22:24 | 48.41756 | 142.06198 | 35786 ft | 435 kts | 183° |
| 2026-05-08 22:25 | 48.35711 | 142.06020 | 35775 ft | 434 kts | 184° |
| 2026-05-08 22:25 | 48.29711 | 142.05843 | 35785 ft | 433 kts | 184° |
| 2026-05-08 22:26 | 48.23679 | 142.05666 | 35789 ft | 433 kts | 184° |
| 2026-05-08 22:26 | 48.17661 | 142.05490 | 35788 ft | 435 kts | 184° |
| 2026-05-08 22:27 | 48.11607 | 142.05313 | 35573 ft | 433 kts | 184° |
| 2026-05-08 22:27 | 48.08600 | 142.05226 | 35070 ft | 431 kts | 183° |
| 2026-05-08 22:27 | 48.05608 | 142.05139 | 34591 ft | 429 kts | 183° |
| 2026-05-08 22:27 | 48.02667 | 142.05054 | 34169 ft | 427 kts | 184° |
| 2026-05-08 22:28 | 47.99676 | 142.04967 | 33658 ft | 422 kts | 184° |
| 2026-05-08 22:28 | 47.96759 | 142.04883 | 33267 ft | 417 kts | 183° |
| 2026-05-08 22:28 | 47.93911 | 142.04800 | 32892 ft | 411 kts | 183° |
| 2026-05-08 22:28 | 47.91077 | 142.04719 | 32493 ft | 403 kts | 182° |
| 2026-05-08 22:29 | 47.88287 | 142.04637 | 32059 ft | 397 kts | 182° |
| 2026-05-08 22:29 | 47.85559 | 142.04559 | 31612 ft | 392 kts | 182° |
| 2026-05-08 22:29 | 47.82822 | 142.04480 | 31155 ft | 386 kts | 182° |
| 2026-05-08 22:29 | 47.80157 | 142.04405 | 30629 ft | 379 kts | 182° |
| 2026-05-08 22:30 | 47.77546 | 142.04329 | 30089 ft | 372 kts | 181° |
| 2026-05-08 22:30 | 47.75009 | 142.04254 | 29547 ft | 367 kts | 181° |
| 2026-05-08 22:30 | 47.72463 | 142.04182 | 28993 ft | 361 kts | 182° |
| 2026-05-08 22:30 | 47.69971 | 142.04111 | 28437 ft | 357 kts | 182° |
| 2026-05-08 22:31 | 47.67488 | 142.04044 | 27843 ft | 354 kts | 179° |
| 2026-05-08 22:31 | 47.65064 | 142.04741 | 27122 ft | 359 kts | 160° |
| 2026-05-08 22:31 | 47.62964 | 142.06691 | 26381 ft | 367 kts | 140° |
| 2026-05-08 22:31 | 47.61406 | 142.09724 | 25665 ft | 375 kts | 120° |
| 2026-05-08 22:32 | 47.60344 | 142.13197 | 25038 ft | 373 kts | 119° |
| 2026-05-08 22:32 | 47.59038 | 142.16469 | 24387 ft | 368 kts | 130° |
| 2026-05-08 22:32 | 47.57442 | 142.19379 | 23731 ft | 365 kts | 132° |
| 2026-05-08 22:32 | 47.55836 | 142.22331 | 23074 ft | 364 kts | 129° |
| 2026-05-08 22:33 | 47.54349 | 142.25295 | 22440 ft | 362 kts | 129° |
| 2026-05-08 22:33 | 47.52829 | 142.28259 | 21801 ft | 359 kts | 130° |
| 2026-05-08 22:33 | 47.51309 | 142.31094 | 21125 ft | 358 kts | 130° |
| 2026-05-08 22:33 | 47.49762 | 142.33975 | 20437 ft | 357 kts | 129° |
| 2026-05-08 22:34 | 47.48249 | 142.36847 | 19753 ft | 354 kts | 129° |
| 2026-05-08 22:34 | 47.46728 | 142.39697 | 19079 ft | 350 kts | 129° |
| 2026-05-08 22:34 | 47.45233 | 142.42465 | 18431 ft | 346 kts | 129° |
| 2026-05-08 22:34 | 47.43745 | 142.45230 | 17829 ft | 341 kts | 129° |
| 2026-05-08 22:35 | 47.42289 | 142.47939 | 17210 ft | 336 kts | 128° |
| 2026-05-08 22:35 | 47.40857 | 142.50609 | 16580 ft | 332 kts | 128° |
| 2026-05-08 22:35 | 47.39426 | 142.53265 | 15959 ft | 328 kts | 127° |
| 2026-05-08 22:35 | 47.38019 | 142.55873 | 15320 ft | 324 kts | 127° |
| 2026-05-08 22:36 | 47.36628 | 142.58452 | 14684 ft | 319 kts | 127° |
| 2026-05-08 22:36 | 47.35260 | 142.60986 | 14053 ft | 315 kts | 126° |
| 2026-05-08 22:36 | 47.33912 | 142.63481 | 13434 ft | 311 kts | 126° |
| 2026-05-08 22:36 | 47.32573 | 142.65956 | 12790 ft | 308 kts | 126° |
| 2026-05-08 22:37 | 47.31249 | 142.68422 | 12090 ft | 306 kts | 125° |
| 2026-05-08 22:37 | 47.29943 | 142.70856 | 11418 ft | 304 kts | 126° |
| 2026-05-08 22:37 | 47.28366 | 142.72906 | 10753 ft | 307 kts | 148° |
| 2026-05-08 22:37 | 47.26331 | 142.73857 | 10138 ft | 310 kts | 172° |
| 2026-05-08 22:38 | 47.24189 | 142.73557 | 9545 ft | 310 kts | 193° |
| 2026-05-08 22:38 | 47.22152 | 142.72784 | 9013 ft | 303 kts | 188° |
| 2026-05-08 22:38 | 47.20089 | 142.72513 | 8492 ft | 295 kts | 175° |
| 2026-05-08 22:38 | 47.18045 | 142.72583 | 7934 ft | 290 kts | 175° |
| 2026-05-08 22:39 | 47.16042 | 142.72536 | 7374 ft | 288 kts | 179° |
| 2026-05-08 22:39 | 47.14046 | 142.72386 | 6805 ft | 284 kts | 178° |
| 2026-05-08 22:39 | 47.12113 | 142.72305 | 6239 ft | 281 kts | 176° |
| 2026-05-08 22:39 | 47.10154 | 142.72281 | 5909 ft | 278 kts | 176° |
| 2026-05-08 22:40 | 47.08224 | 142.72238 | 5757 ft | 277 kts | 177° |
| 2026-05-08 22:40 | 47.06305 | 142.72171 | 5608 ft | 276 kts | 177° |
| 2026-05-08 22:40 | 47.04389 | 142.72115 | 5462 ft | 274 kts | 176° |
| 2026-05-08 22:40 | 47.02475 | 142.72070 | 5314 ft | 274 kts | 176° |
| 2026-05-08 22:41 | 47.00565 | 142.72021 | 5168 ft | 274 kts | 176° |
| 2026-05-08 22:41 | 46.98654 | 142.71968 | 5025 ft | 273 kts | 176° |
| 2026-05-08 22:41 | 46.96748 | 142.71916 | 4888 ft | 271 kts | 176° |
| 2026-05-08 22:41 | 46.94875 | 142.71866 | 4798 ft | 270 kts | 176° |
| 2026-05-08 22:42 | 46.92974 | 142.71819 | 4800 ft | 271 kts | 176° |
| 2026-05-08 22:42 | 46.91085 | 142.71770 | 4804 ft | 273 kts | 176° |
| 2026-05-08 22:42 | 46.89206 | 142.71719 | 4789 ft | 274 kts | 176° |
| 2026-05-08 22:42 | 46.87286 | 142.71666 | 4760 ft | 271 kts | 176° |
| 2026-05-08 22:43 | 46.85372 | 142.71613 | 4770 ft | 272 kts | 176° |
| 2026-05-08 22:43 | 46.83479 | 142.71558 | 4784 ft | 274 kts | 178° |
| 2026-05-08 22:43 | 46.81614 | 142.71001 | 4763 ft | 280 kts | 200° |
| 2026-05-08 22:43 | 46.79884 | 142.69688 | 4731 ft | 276 kts | 206° |
| 2026-05-08 22:44 | 46.78175 | 142.68512 | 4512 ft | 271 kts | 197° |
| 2026-05-08 22:44 | 46.76395 | 142.67630 | 4216 ft | 269 kts | 194° |
| 2026-05-08 22:44 | 46.74627 | 142.66733 | 3929 ft | 270 kts | 198° |
| 2026-05-08 22:44 | 46.72879 | 142.65709 | 3655 ft | 270 kts | 199° |
| 2026-05-08 22:45 | 46.71128 | 142.64688 | 3392 ft | 268 kts | 198° |
| 2026-05-08 22:45 | 46.69397 | 142.63737 | 3125 ft | 267 kts | 197° |
| 2026-05-08 22:45 | 46.67648 | 142.62787 | 2874 ft | 265 kts | 197° |
| 2026-05-08 22:45 | 46.65910 | 142.62233 | 2758 ft | 249 kts | 172° |
| 2026-05-08 22:46 | 46.64353 | 142.62941 | 2743 ft | 224 kts | 138° |
| 2026-05-08 22:46 | 46.63430 | 142.64542 | 2554 ft | 200 kts | 103° |
| 2026-05-08 22:46 | 46.63372 | 142.66469 | 2346 ft | 191 kts | 68° |
| 2026-05-08 22:46 | 46.64159 | 142.67964 | 2174 ft | 192 kts | 32° |
| 2026-05-08 22:47 | 46.65406 | 142.68636 | 2097 ft | 192 kts | 19° |
| 2026-05-08 22:47 | 46.66687 | 142.69144 | 1992 ft | 193 kts | 20° |
| 2026-05-08 22:47 | 46.67962 | 142.69717 | 1880 ft | 193 kts | 20° |
| 2026-05-08 22:47 | 46.69239 | 142.70309 | 1791 ft | 193 kts | 19° |
| 2026-05-08 22:48 | 46.70570 | 142.70746 | 1754 ft | 184 kts | 13° |
| 2026-05-08 22:48 | 46.71633 | 142.71005 | 1875 ft | 134 kts | 13° |
| 2026-05-08 22:48 | 46.72574 | 142.71237 | 1975 ft | 139 kts | 14° |
| 2026-05-08 22:48 | 46.73535 | 142.71364 | 1947 ft | 140 kts | 5° |
| 2026-05-08 22:49 | 46.74501 | 142.71379 | 1911 ft | 138 kts | 7° |
| 2026-05-08 22:49 | 46.76415 | 142.71445 | 1894 ft | 135 kts | 6° |
| 2026-05-08 22:49 | 46.77284 | 142.71464 | 1726 ft | 122 kts | 6° |
| 2026-05-08 22:50 | 46.78106 | 142.71487 | 1462 ft | 120 kts | 5° |
| 2026-05-08 22:50 | 46.78987 | 142.71509 | 1479 ft | 132 kts | 5° |
| 2026-05-08 22:50 | 46.79906 | 142.71532 | 1340 ft | 130 kts | 4° |
| 2026-05-08 22:50 | 46.80798 | 142.71553 | 1193 ft | 128 kts | 4° |
| 2026-05-08 22:51 | 46.81695 | 142.71574 | 1072 ft | 128 kts | 4° |
| 2026-05-08 22:51 | 46.82582 | 142.71596 | 910 ft | 127 kts | 4° |
| 2026-05-08 22:51 | 46.83474 | 142.71617 | 757 ft | 126 kts | 3° |
| 2026-05-08 22:51 | 46.84344 | 142.71637 | 594 ft | 126 kts | 3° |
| 2026-05-08 22:52 | 46.85220 | 142.71658 | 436 ft | 125 kts | 3° |
| 2026-05-08 22:52 | 46.85725 | 142.71670 | 342 ft | 124 kts | 2° |
| 2026-05-08 22:52 | 46.86384 | 142.71687 | 226 ft | 124 kts | 2° |
| 2026-05-08 22:52 | 46.86608 | 142.71692 | 185 ft | 124 kts | 2° |
| 2026-05-08 22:53 | 46.87067 | 142.71704 | 104 ft | 123 kts | 2° |
| 2026-05-08 22:53 | 46.87838 | 142.71722 | 73 ft | 93 kts | 2° |
| 2026-05-08 22:53 | 46.88326 | 142.71738 | 72 ft | 45 kts | 1° |
| 2026-05-08 22:53 | 46.88575 | 142.71745 | 72 ft | 26 kts | 3° |
| 2026-05-08 22:54 | 46.88675 | 142.71776 | 72 ft | 10 kts | 44° |
| 2026-05-08 22:54 | 46.88699 | 142.71880 | 72 ft | 11 kts | 86° |
| 2026-05-08 22:54 | 46.88702 | 142.72012 | 72 ft | 14 kts | 87° |
| 2026-05-08 22:54 | 46.88720 | 142.72107 | 72 ft | 8 kts | 28° |
| 2026-05-08 22:55 | 46.88783 | 142.72116 | 72 ft | 10 kts | 2° |
| 2026-05-08 22:55 | 46.88847 | 142.72137 | 72 ft | 6 kts | 57° |
| 2026-05-08 22:55 | 46.88850 | 142.72194 | 72 ft | 5 kts | 110° |
| 2026-05-08 22:55 | 46.88845 | 142.72218 | 72 ft | 1 kts | 93° |
| 2026-05-08 22:56 | 46.88845 | 142.72227 | 72 ft | 0 kts | 92° |